createdAt,value
2018-02-18T00:02:27.377Z,56.87
2018-02-18T00:04:55.132Z,47.70
2018-02-18T00:07:23.542Z,50.80
2018-02-18T00:09:51.099Z,57.10
2018-02-18T00:12:18.771Z,54.50
2018-02-18T00:15:02.006Z,55.10
2018-02-18T00:17:30.332Z,51.67
2018-02-18T00:19:57.949Z,53.87
2018-02-18T00:22:25.530Z,49.00
2018-02-18T00:24:53.142Z,44.23
2018-02-18T00:27:20.758Z,46.07
2018-02-18T00:29:48.376Z,45.20
2018-02-18T00:32:15.986Z,47.37
2018-02-18T00:34:44.442Z,53.60
2018-02-18T00:37:12.016Z,51.90
2018-02-18T00:39:39.752Z,47.87
2018-02-18T00:42:07.328Z,49.83
2018-02-18T00:44:35.686Z,44.60
2018-02-18T00:47:03.259Z,43.17
2018-02-18T00:49:31.723Z,44.33
2018-02-18T00:51:59.337Z,47.57
2018-02-18T00:54:27.178Z,45.50
2018-02-18T00:56:54.868Z,51.23
2018-02-18T00:59:22.512Z,47.63
2018-02-18T01:01:50.756Z,46.83
2018-02-18T01:04:18.539Z,48.13
2018-02-18T01:06:46.176Z,46.20
2018-02-18T01:09:13.744Z,48.60
2018-02-18T01:11:41.324Z,44.67
2018-02-18T01:14:08.907Z,53.20
2018-02-18T01:16:36.486Z,50.53
2018-02-18T01:19:04.055Z,52.63
2018-02-18T01:21:31.638Z,55.07
2018-02-18T01:24:00.750Z,54.67
2018-02-18T01:26:28.643Z,47.90
2018-02-18T01:28:56.222Z,47.77
2018-02-18T01:31:24.601Z,53.97
2018-02-18T01:33:52.181Z,50.23
2018-02-18T01:36:19.880Z,52.90
2018-02-18T01:38:47.468Z,54.53
2018-02-18T01:41:15.134Z,45.43
2018-02-18T01:43:42.695Z,44.97
2018-02-18T01:46:10.283Z,54.10
2018-02-18T01:48:37.917Z,52.40
2018-02-18T01:51:05.518Z,56.20
2018-02-18T01:53:33.086Z,54.93
2018-02-18T01:56:01.446Z,53.77
2018-02-18T01:58:29.026Z,54.33
2018-02-18T02:00:56.825Z,59.07
2018-02-18T02:03:25.160Z,59.87
2018-02-18T02:05:52.774Z,61.90
2018-02-18T02:08:21.194Z,58.03
2018-02-18T02:11:31.645Z,55.80
2018-02-18T02:14:00.099Z,47.13
2018-02-18T02:16:27.722Z,55.00
2018-02-18T02:18:56.220Z,57.70
2018-02-18T02:21:23.956Z,55.17
2018-02-18T02:23:51.562Z,44.83
2018-02-18T02:26:19.909Z,60.43
2018-02-18T02:28:47.466Z,50.77
2018-02-18T02:31:15.044Z,51.47
2018-02-18T02:33:42.631Z,44.47
2018-02-18T02:36:10.227Z,49.77
2018-02-18T02:38:37.855Z,53.60
2018-02-18T02:41:05.445Z,52.33
2018-02-18T02:43:33.023Z,65.87
2018-02-18T02:46:00.656Z,59.43
2018-02-18T02:48:28.227Z,67.93
2018-02-18T02:50:55.817Z,59.63
2018-02-18T02:53:23.378Z,59.60
2018-02-18T02:55:51.028Z,56.90
2018-02-18T02:58:18.627Z,54.97
2018-02-18T03:00:46.214Z,53.07
2018-02-18T03:03:13.828Z,62.73
2018-02-18T03:05:42.199Z,61.13
2018-02-18T03:08:09.762Z,58.70
2018-02-18T03:10:37.371Z,56.67
2018-02-18T03:13:04.937Z,57.87
2018-02-18T03:15:32.528Z,58.77
2018-02-18T03:18:00.858Z,70.07
2018-02-18T03:20:28.483Z,58.10
2018-02-18T03:22:56.058Z,52.30
2018-02-18T03:25:24.424Z,51.93
2018-02-18T03:27:52.029Z,52.13
2018-02-18T03:30:19.646Z,57.13
2018-02-18T03:32:47.223Z,56.87
2018-02-18T03:35:14.856Z,58.13
2018-02-18T03:37:42.448Z,54.03
2018-02-18T03:40:10.052Z,58.77
2018-02-18T03:42:37.996Z,67.03
2018-02-18T03:45:05.616Z,66.23
2018-02-18T03:47:33.189Z,59.57
2018-02-18T03:50:00.790Z,59.30
2018-02-18T03:52:29.135Z,59.63
2018-02-18T03:54:56.710Z,62.73
2018-02-18T03:57:24.301Z,61.90
2018-02-18T03:59:51.872Z,64.87
2018-02-18T04:02:19.468Z,64.40
2018-02-18T04:04:47.062Z,51.63
2018-02-18T04:07:14.667Z,52.83
2018-02-18T04:09:42.276Z,56.67
2018-02-18T04:12:10.624Z,47.60
2018-02-18T04:14:38.318Z,44.50
2018-02-18T04:17:05.922Z,49.57
2018-02-18T04:19:34.251Z,56.03
2018-02-18T04:22:01.850Z,45.83
2018-02-18T04:24:30.442Z,53.00
2018-02-18T04:26:58.045Z,43.80
2018-02-18T04:29:25.616Z,46.53
2018-02-18T04:31:54.005Z,47.70
2018-02-18T04:34:22.379Z,46.63
2018-02-18T04:36:49.966Z,44.33
2018-02-18T04:39:18.342Z,42.03
2018-02-18T04:41:45.938Z,46.87
2018-02-18T04:44:14.291Z,49.97
2018-02-18T04:46:41.884Z,40.30
2018-02-18T04:49:09.488Z,44.33
2018-02-18T04:51:37.084Z,44.23
2018-02-18T04:54:04.649Z,39.63
2018-02-18T04:56:32.263Z,34.13
2018-02-18T04:58:59.834Z,42.40
2018-02-18T05:01:27.417Z,45.07
2018-02-18T05:03:54.998Z,38.47
2018-02-18T05:06:22.594Z,39.60
2018-02-18T05:08:50.244Z,40.80
2018-02-18T05:11:18.608Z,40.63
2018-02-18T05:13:46.183Z,41.00
2018-02-18T05:16:13.766Z,41.43
2018-02-18T05:18:41.347Z,42.50
2018-02-18T05:21:09.735Z,41.60
2018-02-18T05:23:37.297Z,38.23
2018-02-18T05:26:04.884Z,41.73
2018-02-18T05:28:33.326Z,37.50
2018-02-18T05:31:00.910Z,36.20
2018-02-18T05:33:28.466Z,41.20
2018-02-18T05:35:56.090Z,39.20
2018-02-18T05:38:23.651Z,39.83
2018-02-18T05:40:51.323Z,50.80
2018-02-18T05:43:18.926Z,45.07
2018-02-18T05:45:47.358Z,43.77
2018-02-18T05:48:15.031Z,44.43
2018-02-18T05:50:42.612Z,38.83
2018-02-18T05:53:10.269Z,43.37
2018-02-18T05:55:38.823Z,45.47
2018-02-18T05:58:07.307Z,53.37
2018-02-18T06:00:34.887Z,68.63
2018-02-18T06:03:03.255Z,56.10
2018-02-18T06:05:30.871Z,50.23
2018-02-18T06:07:59.248Z,46.93
2018-02-18T06:10:27.596Z,38.93
2018-02-18T06:12:55.195Z,41.40
2018-02-18T06:15:22.785Z,43.40
2018-02-18T06:17:51.146Z,39.17
2018-02-18T06:20:18.732Z,38.30
2018-02-18T06:22:46.340Z,31.47
2018-02-18T06:25:13.912Z,39.20
2018-02-18T06:27:41.623Z,38.63
2018-02-18T06:30:09.433Z,33.53
2018-02-18T06:32:37.976Z,33.20
2018-02-18T06:35:05.557Z,36.20
2018-02-18T06:37:33.164Z,34.07
2018-02-18T06:40:01.536Z,35.20
2018-02-18T06:42:29.214Z,32.23
2018-02-18T06:44:56.805Z,28.70
2018-02-18T06:47:25.176Z,35.77
2018-02-18T06:49:52.803Z,33.20
2018-02-18T06:52:20.465Z,34.37
2018-02-18T06:54:48.950Z,33.80
2018-02-18T06:57:17.278Z,35.87
2018-02-18T06:59:44.959Z,32.17
2018-02-18T07:02:13.343Z,29.70
2018-02-18T07:04:40.948Z,34.97
2018-02-18T07:07:08.543Z,35.03
2018-02-18T07:09:36.153Z,44.23
2018-02-18T07:12:03.759Z,41.97
2018-02-18T07:14:31.321Z,39.37
2018-02-18T07:16:58.931Z,33.10
2018-02-18T07:19:26.499Z,48.60
2018-02-18T07:21:54.166Z,43.90
2018-02-18T07:24:21.812Z,37.47
2018-02-18T07:26:49.497Z,39.03
2018-02-18T07:29:17.098Z,41.10
2018-02-18T07:31:45.489Z,37.10
2018-02-18T07:34:13.892Z,36.00
2018-02-18T07:36:41.484Z,34.97
2018-02-18T07:39:09.058Z,39.37
2018-02-18T07:41:36.658Z,33.20
2018-02-18T07:44:04.349Z,38.50
2018-02-18T07:46:31.948Z,33.37
2018-02-18T07:48:59.580Z,32.73
2018-02-18T07:51:27.156Z,39.80
2018-02-18T07:53:54.806Z,44.07
2018-02-18T07:56:22.420Z,38.73
2018-02-18T07:58:50.115Z,38.93
2018-02-18T08:01:18.508Z,44.50
2018-02-18T08:03:46.901Z,44.40
2018-02-18T08:06:15.313Z,43.20
2018-02-18T08:08:42.968Z,40.50
2018-02-18T08:11:11.382Z,45.87
2018-02-18T08:13:41.166Z,46.93
2018-02-18T08:16:10.552Z,43.97
2018-02-18T08:18:38.918Z,42.70
2018-02-18T08:21:06.511Z,37.17
2018-02-18T08:23:34.830Z,43.10
2018-02-18T08:26:02.433Z,43.90
2018-02-18T08:28:30.027Z,46.23
2018-02-18T08:30:57.635Z,44.60
2018-02-18T08:33:25.963Z,48.03
2018-02-18T08:35:54.436Z,44.47
2018-02-18T08:38:22.063Z,40.13
2018-02-18T08:40:49.776Z,45.00
2018-02-18T08:43:17.378Z,36.67
2018-02-18T08:45:45.619Z,41.10
2018-02-18T08:48:13.309Z,40.33
2018-02-18T08:50:40.960Z,42.63
2018-02-18T08:53:09.682Z,39.37
2018-02-18T08:55:37.406Z,37.90
2018-02-18T08:58:06.256Z,43.70
2018-02-18T09:00:33.859Z,40.90
2018-02-18T09:03:03.069Z,39.00
2018-02-18T09:05:31.471Z,38.03
2018-02-18T09:07:59.209Z,46.33
2018-02-18T09:10:26.883Z,35.40
2018-02-18T09:12:54.464Z,40.67
2018-02-18T09:15:22.122Z,39.13
2018-02-18T09:17:49.707Z,40.20
2018-02-18T09:20:17.318Z,34.90
2018-02-18T09:22:45.879Z,35.90
2018-02-18T09:25:13.515Z,35.60
2018-02-18T09:27:41.374Z,39.37
2018-02-18T09:30:09.031Z,37.23
2018-02-18T09:32:38.121Z,40.27
2018-02-18T09:35:06.767Z,38.97
2018-02-18T09:37:34.463Z,34.63
2018-02-18T09:40:02.700Z,36.97
2018-02-18T09:45:44.031Z,35.47
2018-02-18T09:48:11.916Z,36.37
2018-02-18T09:50:39.608Z,36.63
2018-02-18T09:54:05.306Z,33.30
2018-02-18T09:56:32.905Z,32.23
2018-02-18T09:59:01.744Z,38.43
2018-02-18T10:01:29.625Z,35.20
2018-02-18T10:03:58.259Z,32.73
2018-02-18T10:06:25.946Z,33.77
2018-02-18T10:08:53.564Z,33.73
2018-02-18T10:11:21.230Z,48.07
2018-02-18T10:13:49.102Z,54.30
2018-02-18T10:16:16.725Z,31.37
2018-02-18T10:18:44.361Z,29.27
2018-02-18T10:21:12.701Z,32.73
2018-02-18T10:23:40.539Z,28.50
2018-02-18T10:26:08.167Z,32.10
2018-02-18T10:28:35.736Z,27.90
2018-02-18T10:31:04.210Z,28.20
2018-02-18T10:33:31.787Z,29.97
2018-02-18T10:35:59.422Z,34.07
2018-02-18T10:38:27.025Z,30.50
2018-02-18T10:40:54.691Z,31.53
2018-02-18T10:43:22.294Z,27.27
2018-02-18T10:45:50.731Z,30.70
2018-02-18T10:48:18.334Z,27.93
2018-02-18T10:50:45.954Z,28.77
2018-02-18T10:53:14.331Z,26.27
2018-02-18T10:55:42.717Z,27.57
2018-02-18T10:58:11.173Z,25.70
2018-02-18T11:00:39.587Z,28.40
2018-02-18T11:03:07.171Z,25.50
2018-02-18T11:05:34.795Z,29.43
2018-02-18T11:08:02.428Z,27.63
2018-02-18T11:10:30.842Z,27.70
2018-02-18T11:12:58.605Z,26.93
2018-02-18T11:15:26.983Z,27.37
2018-02-18T11:17:55.385Z,27.33
2018-02-18T11:20:23.736Z,57.47
2018-02-18T11:22:51.340Z,29.27
2018-02-18T11:25:18.990Z,25.47
2018-02-18T11:27:46.660Z,23.87
2018-02-18T11:30:14.288Z,26.97
2018-02-18T11:32:41.913Z,26.33
2018-02-18T11:35:09.530Z,22.70
2018-02-18T11:37:37.163Z,27.53
2018-02-18T11:40:04.823Z,23.37
2018-02-18T11:42:32.394Z,25.07
2018-02-18T11:45:00.072Z,27.07
2018-02-18T11:47:27.686Z,23.60
2018-02-18T11:49:56.044Z,20.50
2018-02-18T11:52:23.618Z,20.83
2018-02-18T11:54:51.263Z,22.17
2018-02-18T11:57:18.831Z,24.07
2018-02-18T11:59:47.059Z,22.27
2018-02-18T12:02:14.675Z,22.27
2018-02-18T12:04:42.280Z,20.53
2018-02-18T12:07:09.903Z,16.63
2018-02-18T12:09:38.859Z,20.17
2018-02-18T12:12:06.486Z,24.27
2018-02-18T12:14:34.144Z,22.50
2018-02-18T12:17:02.572Z,22.43
2018-02-18T12:19:30.210Z,20.83
2018-02-18T12:21:59.011Z,19.67
2018-02-18T12:24:27.606Z,21.87
2018-02-18T12:26:55.973Z,19.50
2018-02-18T12:29:23.628Z,18.33
2018-02-18T12:31:51.258Z,16.70
2018-02-18T12:34:18.892Z,23.67
2018-02-18T12:36:46.586Z,35.70
2018-02-18T12:39:15.091Z,24.13
2018-02-18T12:41:42.709Z,19.60
2018-02-18T12:44:10.407Z,25.33
2018-02-18T12:46:39.189Z,45.80
2018-02-18T12:49:06.847Z,19.40
2018-02-18T12:51:34.535Z,19.23
2018-02-18T12:54:02.185Z,19.50
2018-02-18T12:56:30.786Z,19.57
2018-02-18T12:58:58.456Z,20.07
2018-02-18T13:03:59.739Z,20.00
2018-02-18T13:06:28.358Z,19.93
2018-02-18T13:08:56.008Z,18.97
2018-02-18T13:11:23.631Z,20.20
2018-02-18T13:13:52.976Z,19.57
2018-02-18T13:16:22.098Z,21.70
2018-02-18T13:18:49.711Z,23.27
2018-02-18T13:21:17.327Z,18.30
2018-02-18T13:23:45.008Z,18.73
2018-02-18T13:26:13.368Z,18.27
2018-02-18T13:28:41.014Z,17.60
2018-02-18T13:31:08.627Z,19.40
2018-02-18T13:33:36.331Z,19.73
2018-02-18T13:36:03.947Z,19.07
2018-02-18T13:38:36.938Z,23.17
2018-02-18T13:41:04.820Z,21.37
2018-02-18T13:43:33.491Z,20.53
2018-02-18T13:46:02.760Z,20.43
2018-02-18T13:48:30.372Z,17.47
2018-02-18T13:50:58.763Z,19.20
2018-02-18T13:53:27.143Z,17.77
2018-02-18T13:56:09.567Z,18.57
2018-02-18T13:58:38.742Z,20.53
2018-02-18T14:01:06.340Z,18.30
2018-02-18T14:03:33.933Z,18.10
2018-02-18T14:06:02.300Z,21.33
2018-02-18T14:08:30.021Z,17.10
2018-02-18T14:10:57.647Z,20.07
2018-02-18T14:13:25.251Z,21.77
2018-02-18T14:15:53.680Z,25.50
2018-02-18T14:18:21.247Z,21.47
2018-02-18T14:20:49.015Z,19.47
2018-02-18T14:23:16.628Z,20.00
2018-02-18T14:25:44.192Z,18.03
2018-02-18T14:28:11.822Z,15.20
2018-02-18T14:30:39.475Z,16.17
2018-02-18T14:33:07.823Z,14.80
2018-02-18T14:35:36.142Z,15.37
2018-02-18T14:38:03.810Z,16.10
2018-02-18T14:40:33.019Z,15.90
2018-02-18T14:43:13.393Z,14.70
2018-02-18T14:45:52.889Z,11.47
2018-02-18T14:48:32.426Z,16.97
2018-02-18T14:51:12.093Z,14.93
2018-02-18T14:53:51.418Z,18.00
2018-02-18T14:56:31.682Z,14.43
2018-02-18T14:59:00.110Z,13.10
2018-02-18T15:01:27.717Z,12.83
2018-02-18T15:03:56.080Z,14.70
2018-02-18T15:06:23.698Z,18.13
2018-02-18T15:08:51.287Z,17.53
2018-02-18T15:11:19.694Z,14.50
2018-02-18T15:13:47.314Z,17.70
2018-02-18T15:16:15.899Z,15.40
2018-02-18T15:18:43.861Z,15.37
2018-02-18T15:21:11.453Z,15.47
2018-02-18T15:23:39.076Z,15.27
2018-02-18T15:26:06.678Z,16.10
2018-02-18T15:28:34.264Z,15.33
2018-02-18T15:31:02.005Z,18.47
2018-02-18T15:33:30.688Z,17.27
2018-02-18T15:35:58.329Z,16.40
2018-02-18T15:38:26.852Z,16.20
2018-02-18T15:40:54.476Z,19.10
2018-02-18T15:43:22.990Z,14.73
2018-02-18T15:45:51.359Z,15.00
2018-02-18T15:48:19.020Z,15.07
2018-02-18T15:50:46.702Z,43.03
2018-02-18T15:53:17.688Z,35.33
2018-02-18T15:55:45.359Z,126.40
2018-02-18T15:58:13.008Z,53.20
2018-02-18T16:00:40.662Z,55.03
2018-02-18T16:03:08.296Z,185.27
2018-02-18T16:05:36.695Z,54.33
2018-02-18T16:08:04.409Z,28.80
2018-02-18T16:10:32.121Z,19.20
2018-02-18T16:12:59.742Z,16.97
2018-02-18T16:15:28.921Z,13.67
2018-02-18T16:17:56.562Z,14.63
2018-02-18T16:20:24.139Z,15.57
2018-02-18T16:22:51.873Z,14.13
2018-02-18T16:25:19.551Z,20.07
2018-02-18T16:27:47.722Z,15.27
2018-02-18T16:30:16.068Z,17.93
2018-02-18T16:32:44.789Z,16.17
2018-02-18T16:35:12.427Z,17.83
2018-02-18T16:37:40.196Z,13.83
2018-02-18T16:40:08.656Z,14.97
2018-02-18T16:42:36.279Z,17.33
2018-02-18T16:45:05.453Z,18.23
2018-02-18T16:47:33.820Z,18.10
2018-02-18T16:50:01.409Z,16.97
2018-02-18T16:52:29.831Z,17.60
2018-02-18T16:54:57.456Z,19.60
2018-02-18T16:57:25.109Z,17.43
2018-02-18T16:59:52.767Z,19.00
2018-02-18T17:02:20.471Z,17.67
2018-02-18T17:04:48.087Z,59.60
2018-02-18T17:07:15.718Z,142.43
2018-02-18T17:09:43.327Z,217.73
2018-02-18T17:12:10.935Z,54.57
2018-02-18T17:14:38.582Z,23.00
2018-02-18T17:17:06.217Z,19.20
2018-02-18T17:19:33.823Z,17.63
2018-02-18T17:22:01.488Z,19.53
2018-02-18T17:24:30.565Z,22.40
2018-02-18T17:27:04.046Z,17.37
2018-02-18T17:29:32.968Z,20.53
2018-02-18T17:32:01.085Z,19.43
2018-02-18T17:34:29.082Z,18.70
2018-02-18T17:36:59.071Z,20.10
2018-02-18T17:39:27.156Z,17.10
2018-02-18T17:41:55.963Z,19.43
2018-02-18T17:44:23.936Z,20.30
2018-02-18T17:46:51.991Z,23.33
2018-02-18T17:49:20.936Z,20.63
2018-02-18T17:51:49.047Z,21.03
2018-02-18T17:54:18.680Z,20.20
2018-02-18T17:56:46.744Z,24.07
2018-02-18T17:59:14.900Z,20.63
2018-02-18T18:01:42.958Z,23.33
2018-02-18T18:04:12.037Z,20.60
2018-02-18T18:06:40.137Z,24.13
2018-02-18T18:09:07.759Z,25.80
2018-02-18T18:11:35.341Z,21.33
2018-02-18T18:14:02.959Z,19.70
2018-02-18T18:16:30.856Z,17.93
2018-02-18T18:18:58.970Z,67.67
2018-02-18T18:21:27.099Z,47.27
2018-02-18T18:23:55.212Z,56.47
2018-02-18T18:26:23.784Z,48.10
2018-02-18T18:28:52.419Z,40.20
2018-02-18T18:31:20.057Z,23.80
2018-02-18T18:33:49.051Z,23.90
2018-02-18T18:36:17.235Z,19.43
2018-02-18T18:38:45.257Z,17.90
2018-02-18T18:41:14.608Z,19.13
2018-02-18T18:43:43.960Z,22.13
2018-02-18T18:46:11.960Z,22.47
2018-02-18T18:48:40.829Z,25.23
2018-02-18T18:51:08.989Z,22.63
2018-02-18T18:53:36.583Z,22.87
2018-02-18T18:56:04.975Z,21.33
2018-02-18T18:58:32.712Z,19.20
2018-02-18T19:01:00.418Z,21.17
2018-02-18T19:03:29.962Z,22.77
2018-02-18T19:05:58.297Z,22.30
2018-02-18T19:08:25.891Z,24.87
2018-02-18T19:10:53.458Z,26.40
2018-02-18T19:13:21.218Z,25.47
2018-02-18T19:15:48.878Z,25.00
2018-02-18T19:18:16.512Z,24.10
2018-02-18T19:20:44.115Z,25.73
2018-02-18T19:23:12.134Z,26.03
2018-02-18T19:25:40.199Z,102.77
2018-02-18T19:28:09.598Z,77.27
2018-02-18T19:30:39.890Z,51.77
2018-02-18T19:33:09.247Z,27.77
2018-02-18T19:35:37.725Z,25.07
2018-02-18T19:38:05.331Z,26.50
2018-02-18T19:40:33.421Z,23.40
2018-02-18T19:43:02.192Z,22.60
2018-02-18T19:45:29.859Z,21.77
2018-02-18T19:47:57.544Z,23.83
2018-02-18T19:50:25.222Z,22.03
2018-02-18T19:52:52.814Z,23.17
2018-02-18T19:55:20.417Z,26.90
2018-02-18T19:57:48.041Z,18.47
2018-02-18T20:00:15.630Z,23.60
2018-02-18T20:02:43.216Z,24.40
2018-02-18T20:05:11.561Z,22.70
2018-02-18T20:07:39.287Z,22.90
2018-02-18T20:10:06.878Z,22.77
2018-02-18T20:12:34.474Z,23.90
2018-02-18T20:15:02.823Z,24.73
2018-02-18T20:17:30.648Z,29.37
2018-02-18T20:19:58.309Z,26.43
2018-02-18T20:22:25.965Z,27.80
2018-02-18T20:24:53.776Z,24.33
2018-02-18T20:27:21.420Z,24.60
2018-02-18T20:29:49.966Z,23.27
2018-02-18T20:32:17.874Z,44.87
2018-02-18T20:34:46.220Z,38.27
2018-02-18T20:37:14.220Z,27.03
2018-02-18T20:39:41.864Z,27.07
2018-02-18T20:42:09.797Z,26.47
2018-02-18T20:44:37.450Z,26.83
2018-02-18T20:47:05.033Z,27.17
2018-02-18T20:49:32.625Z,24.90
2018-02-18T20:52:00.260Z,23.73
2018-02-18T20:54:27.844Z,22.37
2018-02-18T20:56:55.495Z,22.63
2018-02-18T20:59:23.819Z,22.80
2018-02-18T21:01:51.426Z,20.47
2018-02-18T21:04:19.809Z,22.57
2018-02-18T21:06:48.281Z,21.63
2018-02-18T21:09:15.881Z,20.90
2018-02-18T21:11:44.224Z,21.10
2018-02-18T21:14:11.792Z,20.87
2018-02-18T21:16:39.389Z,20.70
2018-02-18T21:19:06.994Z,22.07
2018-02-18T21:21:35.340Z,25.53
2018-02-18T21:24:02.914Z,19.63
2018-02-18T21:26:30.519Z,29.97
2018-02-18T21:28:58.079Z,23.07
2018-02-18T21:31:25.655Z,22.70
2018-02-18T21:33:53.238Z,23.20
2018-02-18T21:36:21.603Z,26.10
2018-02-18T21:38:49.193Z,21.00
2018-02-18T21:41:16.814Z,23.20
2018-02-18T21:43:44.382Z,26.43
2018-02-18T21:46:11.973Z,23.73
2018-02-18T21:48:40.361Z,26.03
2018-02-18T21:51:09.118Z,26.90
2018-02-18T21:53:37.586Z,25.43
2018-02-18T21:56:05.200Z,27.97
2018-02-18T21:58:32.796Z,26.03
2018-02-18T22:01:00.368Z,21.70
2018-02-18T22:03:27.976Z,23.03
2018-02-18T22:05:55.564Z,31.57
2018-02-18T22:08:23.157Z,23.70
2018-02-18T22:10:50.777Z,24.67
2018-02-18T22:13:18.376Z,27.13
2018-02-18T22:15:46.017Z,28.17
2018-02-18T22:18:13.602Z,29.13
2018-02-18T22:20:41.240Z,24.47
2018-02-18T22:23:08.836Z,26.20
2018-02-18T22:25:36.457Z,24.47
2018-02-18T22:28:04.824Z,27.90
2018-02-18T22:30:32.427Z,24.07
2018-02-18T22:33:00.777Z,29.33
2018-02-18T22:35:29.129Z,28.40
2018-02-18T22:37:57.597Z,31.57
2018-02-18T22:40:25.959Z,26.93
2018-02-18T22:42:53.586Z,30.87
2018-02-18T22:45:21.180Z,25.07
2018-02-18T22:47:48.780Z,24.60
2018-02-18T22:50:16.411Z,31.10
2018-02-18T22:52:44.000Z,29.87
2018-02-18T22:55:11.598Z,28.27
2018-02-18T22:57:39.446Z,25.30
2018-02-18T23:00:07.033Z,29.03
2018-02-18T23:02:35.424Z,27.60
2018-02-18T23:05:08.535Z,29.27
2018-02-18T23:07:36.133Z,29.47
2018-02-18T23:10:04.497Z,28.60
2018-02-18T23:12:32.085Z,33.83
2018-02-18T23:15:00.448Z,31.20
2018-02-18T23:17:28.780Z,27.97
2018-02-18T23:19:56.406Z,30.60
2018-02-18T23:22:23.994Z,29.07
2018-02-18T23:24:51.576Z,30.27
2018-02-18T23:27:19.197Z,31.13
2018-02-18T23:29:46.787Z,31.47
2018-02-18T23:32:14.407Z,28.23
2018-02-18T23:34:42.747Z,30.33
2018-02-18T23:37:10.331Z,31.47
2018-02-18T23:39:37.980Z,31.23
2018-02-18T23:42:05.565Z,31.13
2018-02-18T23:44:33.150Z,31.10
2018-02-18T23:47:00.711Z,34.87
2018-02-18T23:49:28.284Z,32.53
2018-02-18T23:51:55.932Z,32.00
2018-02-18T23:54:23.521Z,32.87
2018-02-18T23:56:51.108Z,32.50
2018-02-18T23:59:18.698Z,32.80
